»·PEaware :: N373EB KWHP-KSEZ

N373EB :: KWHP-KSEZ

FLIGHT INFORMATION

Flight Status: Arrived
Operator: Privately registered:
United States
More flights under this callsign
Pilot: Peder R. (40111)
Aircraft: BEECH AIRCRAFT DEBONAIR BONANZA
(BE33)
More flights by this aircraft type
Origin: KWHP Whiteman
United States
Destination: KSEZ Sedona
United States
More flights between these airports :: More routes between these airports
Route: WHP1 VNY TWINE V518 PMD V12 DRRTY
File this flight plan on PilotEdge
Remarks: If I encounter the forecast Convective SIGMET weather, I'll pause and switch to manual weather.
Altitude:
(Current/Filed)
11,000ft
Speed:
(Current/Filed)
155kts
Departed: 02-Sep-23 10:18 AM
Arrived: 02-Sep-23 12:46 PM
Distance/Time
Traveled:
329nm/2:27
Distance/Time
To Go:
Arrived

Flight Plot

Page will automatically refresh every two minutes.

Flight plan parsing failed; only flown route is shown


Map Options




Map Legend


Flown Route
Filed Route
Departure Airport
Arrival Airport
Navaid (VOR, NDB)
Fix

Horizontal Profiles

Position Reports

Time Latitude Longitude Heading Altitude Ground
Speed
02-Sep-23 09:56 34.260518 -118.413076 319 998ft 0kts
02-Sep-23 09:57 34.260518 -118.413076 319 998ft 0kts
02-Sep-23 09:58 34.260518 -118.413076 319 998ft 0kts
02-Sep-23 09:59 34.260518 -118.413076 319 998ft 0kts
02-Sep-23 10:00 34.260518 -118.413076 319 998ft 0kts
02-Sep-23 10:01 34.260518 -118.413076 319 998ft 0kts
02-Sep-23 10:02 34.260518 -118.413076 319 998ft 0kts
02-Sep-23 10:03 34.260518 -118.413076 319 998ft 0kts
02-Sep-23 10:04 34.260340 -118.413542 226 996ft 7kts
02-Sep-23 10:05 34.262307 -118.415963 317 1000ft 10kts
02-Sep-23 10:06 34.263548 -118.417018 275 1001ft 0kts
02-Sep-23 10:07 34.263548 -118.417018 275 1001ft 0kts
02-Sep-23 10:08 34.263548 -118.417018 275 1001ft 0kts
02-Sep-23 10:09 34.263559 -118.417150 279 1001ft 2kts
02-Sep-23 10:10 34.263632 -118.417368 302 1000ft 0kts
02-Sep-23 10:11 34.263633 -118.417371 301 1000ft 0kts
02-Sep-23 10:12 34.263633 -118.417371 301 1000ft 0kts
02-Sep-23 10:13 34.263633 -118.417371 301 1000ft 0kts
02-Sep-23 10:14 34.263633 -118.417371 301 1000ft 0kts
02-Sep-23 10:15 34.263633 -118.417371 301 1000ft 0kts
02-Sep-23 10:16 34.263002 -118.417395 138 999ft 22kts
02-Sep-23 10:17 34.246417 -118.401908 170 1645ft 93kts
02-Sep-23 10:18 34.236174 -118.428580 254 2441ft 108kts
02-Sep-23 10:19 34.227385 -118.460938 248 3204ft 112kts
02-Sep-23 10:20 34.229856 -118.493257 309 3930ft 117kts
02-Sep-23 10:21 34.257039 -118.509093 340 4667ft 118kts
02-Sep-23 10:22 34.289987 -118.516239 32 5342ft 121kts
02-Sep-23 10:23 34.319832 -118.497188 32 6094ft 122kts
02-Sep-23 10:24 34.352221 -118.478755 33 6826ft 123kts
02-Sep-23 10:25 34.384821 -118.459994 30 7083ft 152kts
02-Sep-23 10:26 34.417500 -118.426202 71 6844ft 162kts
02-Sep-23 10:27 34.438075 -118.376964 65 6861ft 161kts
02-Sep-23 10:28 34.464854 -118.333078 61 7234ft 141kts
02-Sep-23 10:29 34.485764 -118.296895 63 7991ft 124kts
02-Sep-23 10:30 34.507286 -118.263161 59 8549ft 125kts
02-Sep-23 10:31 34.527935 -118.230431 62 9052ft 124kts
02-Sep-23 10:32 34.548840 -118.196444 60 9540ft 125kts
02-Sep-23 10:33 34.569111 -118.162799 63 10010ft 122kts
02-Sep-23 10:34 34.590230 -118.130152 61 10463ft 121kts
02-Sep-23 10:35 34.610887 -118.097946 60 10894ft 120kts
02-Sep-23 10:36 34.630783 -118.060900 81 10938ft 134kts
02-Sep-23 10:37 34.636449 -118.014748 85 10936ft 144kts
02-Sep-23 10:38 34.641766 -117.966145 88 10859ft 147kts
02-Sep-23 10:40 34.647023 -117.917614 89 10870ft 144kts
02-Sep-23 10:41 34.652285 -117.869990 87 10936ft 141kts
02-Sep-23 10:42 34.657010 -117.822071 86 10939ft 142kts
02-Sep-23 10:43 34.662306 -117.773838 89 10933ft 143kts
02-Sep-23 10:44 34.667573 -117.725183 87 10944ft 143kts
02-Sep-23 10:45 34.673023 -117.676692 84 10945ft 144kts
02-Sep-23 10:46 34.678268 -117.628376 87 10945ft 143kts
02-Sep-23 10:47 34.684096 -117.578889 88 10916ft 145kts
02-Sep-23 10:48 34.689230 -117.529616 87 10903ft 145kts
02-Sep-23 10:49 34.694352 -117.481508 84 10958ft 138kts
02-Sep-23 10:50 34.699112 -117.434236 85 10894ft 140kts
02-Sep-23 10:51 34.704044 -117.387493 84 10881ft 139kts
02-Sep-23 10:52 34.708709 -117.340537 85 10889ft 139kts
02-Sep-23 10:53 34.714883 -117.294057 85 10926ft 138kts
02-Sep-23 10:54 34.718931 -117.247257 87 10938ft 139kts
02-Sep-23 10:55 34.723916 -117.200481 86 10932ft 140kts
02-Sep-23 10:56 34.728189 -117.152612 86 10925ft 140kts
02-Sep-23 10:57 34.733459 -117.105244 83 10903ft 141kts
02-Sep-23 10:58 34.738445 -117.057379 85 10893ft 142kts
02-Sep-23 10:59 34.743291 -117.008907 87 10883ft 144kts
02-Sep-23 11:00 34.748634 -116.960060 87 10928ft 145kts
02-Sep-23 11:01 34.752936 -116.910349 85 10921ft 149kts
02-Sep-23 11:02 34.757973 -116.859645 84 10930ft 152kts
02-Sep-23 11:03 34.763246 -116.808443 85 10957ft 152kts
02-Sep-23 11:04 34.767611 -116.757150 83 10967ft 153kts
02-Sep-23 11:05 34.773135 -116.705341 84 10939ft 154kts
02-Sep-23 11:05 34.777212 -116.662212 84 10944ft 153kts
02-Sep-23 11:06 34.783031 -116.610578 86 10933ft 153kts
02-Sep-23 11:08 34.787945 -116.550065 85 10939ft 153kts
02-Sep-23 11:09 34.793019 -116.498399 85 10940ft 153kts
02-Sep-23 11:09 34.797162 -116.455435 92 10944ft 152kts
02-Sep-23 11:10 34.797076 -116.403884 91 10944ft 152kts
02-Sep-23 11:11 34.796264 -116.352142 91 10944ft 152kts
02-Sep-23 11:12 34.796342 -116.300596 91 10972ft 152kts
02-Sep-23 11:14 34.795603 -116.240192 92 10997ft 152kts
02-Sep-23 11:14 34.795253 -116.197231 93 11018ft 152kts
02-Sep-23 11:15 34.794672 -116.145631 93 11046ft 152kts
02-Sep-23 11:16 34.793815 -116.093756 94 11055ft 153kts
02-Sep-23 11:17 34.793380 -116.041760 91 11053ft 153kts
02-Sep-23 11:18 34.792918 -115.989490 92 11034ft 154kts
02-Sep-23 11:19 34.791392 -115.937429 92 11030ft 154kts
02-Sep-23 11:20 34.790952 -115.885294 91 11026ft 154kts
02-Sep-23 11:21 34.790757 -115.832969 92 11021ft 153kts
02-Sep-23 11:22 34.790286 -115.780916 89 11020ft 154kts
02-Sep-23 11:23 34.789673 -115.728567 94 11013ft 153kts
02-Sep-23 11:24 34.789049 -115.676253 94 11011ft 153kts
02-Sep-23 11:25 34.787624 -115.623992 91 11013ft 153kts
02-Sep-23 11:26 34.787957 -115.571767 90 11011ft 153kts
02-Sep-23 11:27 34.786610 -115.519831 92 10998ft 154kts
02-Sep-23 11:28 34.785579 -115.467759 91 11009ft 153kts
02-Sep-23 11:29 34.784709 -115.415886 93 11001ft 153kts
02-Sep-23 11:31 34.781370 -115.314147 99 10997ft 152kts
02-Sep-23 11:32 34.775435 -115.262764 102 11004ft 152kts
02-Sep-23 11:33 34.765054 -115.212798 99 11007ft 153kts
02-Sep-23 11:34 34.770037 -115.160887 83 11009ft 154kts
02-Sep-23 11:35 34.773888 -115.108592 91 10997ft 154kts
02-Sep-23 11:36 34.778259 -115.056085 89 10989ft 155kts
02-Sep-23 11:37 34.778415 -115.003414 93 10995ft 155kts
02-Sep-23 11:38 34.776876 -114.950514 93 10995ft 156kts
02-Sep-23 11:39 34.775071 -114.897538 93 11006ft 156kts
02-Sep-23 11:40 34.774659 -114.844690 90 11017ft 156kts
02-Sep-23 11:41 34.773159 -114.791723 95 11026ft 156kts
02-Sep-23 11:42 34.771606 -114.738516 94 11016ft 156kts
02-Sep-23 11:43 34.770726 -114.685217 92 11001ft 157kts
02-Sep-23 11:44 34.769698 -114.631899 92 11001ft 157kts
02-Sep-23 11:45 34.768098 -114.578654 92 10993ft 157kts
02-Sep-23 11:46 34.767798 -114.525266 91 10988ft 157kts
02-Sep-23 11:47 34.766216 -114.471974 94 10984ft 156kts
02-Sep-23 11:48 34.764906 -114.418656 91 10980ft 157kts
02-Sep-23 11:49 34.763227 -114.365375 96 10973ft 156kts
02-Sep-23 11:50 34.761953 -114.312279 92 10972ft 157kts
02-Sep-23 11:51 34.761835 -114.258884 92 10971ft 157kts
02-Sep-23 11:52 34.759621 -114.205613 96 10971ft 157kts
02-Sep-23 11:53 34.758119 -114.152388 92 10976ft 157kts
02-Sep-23 11:54 34.756781 -114.098945 93 10978ft 156kts
02-Sep-23 11:55 34.755689 -114.045868 94 10983ft 156kts
02-Sep-23 11:56 34.753533 -113.992773 96 10988ft 156kts
02-Sep-23 11:57 34.752442 -113.939642 94 10995ft 156kts
02-Sep-23 11:58 34.750440 -113.886379 94 11032ft 156kts
02-Sep-23 11:59 34.749249 -113.833814 94 11135ft 155kts
02-Sep-23 12:00 34.748413 -113.780489 94 11140ft 157kts
02-Sep-23 12:01 34.746288 -113.725801 96 11123ft 159kts
02-Sep-23 12:02 34.743588 -113.671981 93 11111ft 160kts
02-Sep-23 12:03 34.742514 -113.617501 92 11105ft 159kts
02-Sep-23 12:04 34.741150 -113.563427 95 11090ft 159kts
02-Sep-23 12:05 34.739055 -113.509265 96 11085ft 159kts
02-Sep-23 12:06 34.737375 -113.455061 92 11078ft 159kts
02-Sep-23 12:07 34.734409 -113.400500 92 11074ft 159kts
02-Sep-23 12:08 34.733989 -113.345954 93 11108ft 158kts
02-Sep-23 12:09 34.731420 -113.292507 95 11118ft 159kts
02-Sep-23 12:10 34.729988 -113.237574 92 11115ft 159kts
02-Sep-23 12:11 34.728367 -113.182242 94 11110ft 159kts
02-Sep-23 12:12 34.726560 -113.128369 92 11145ft 159kts
02-Sep-23 12:13 34.725352 -113.074388 95 11215ft 156kts
02-Sep-23 12:14 34.723084 -113.021482 93 11233ft 155kts
02-Sep-23 12:15 34.720891 -112.968283 94 11218ft 157kts
02-Sep-23 12:16 34.718876 -112.914980 93 11232ft 157kts
02-Sep-23 12:17 34.717011 -112.861616 93 11225ft 157kts
02-Sep-23 12:18 34.714999 -112.807859 93 11217ft 158kts
02-Sep-23 12:19 34.712439 -112.754313 90 11221ft 158kts
02-Sep-23 12:20 34.710960 -112.699992 93 11161ft 162kts
02-Sep-23 12:21 34.709218 -112.644838 92 11045ft 162kts
02-Sep-23 12:22 34.706260 -112.589257 94 10992ft 161kts
02-Sep-23 12:23 34.704657 -112.534705 92 10976ft 159kts
02-Sep-23 12:24 34.702761 -112.480631 82 10990ft 158kts
02-Sep-23 12:25 34.714222 -112.428170 74 10993ft 158kts
02-Sep-23 12:26 34.725580 -112.376251 76 11034ft 157kts
02-Sep-23 12:27 34.737160 -112.324702 76 11053ft 144kts
02-Sep-23 12:28 34.746532 -112.281538 77 11039ft 118kts
02-Sep-23 12:29 34.754803 -112.242818 76 11037ft 116kts
02-Sep-23 12:30 34.762875 -112.204737 78 11064ft 115kts
02-Sep-23 12:31 34.755698 -112.168693 129 10861ft 117kts
02-Sep-23 12:32 34.735667 -112.135768 129 10505ft 119kts
02-Sep-23 12:33 34.714925 -112.102836 126 10019ft 133kts
02-Sep-23 12:34 34.691545 -112.065694 130 9628ft 124kts
02-Sep-23 12:35 34.671685 -112.034640 106 9382ft 118kts
02-Sep-23 12:36 34.683434 -111.999620 62 9127ft 113kts
02-Sep-23 12:37 34.703209 -111.969689 48 8845ft 113kts
02-Sep-23 12:38 34.724760 -111.942531 45 8172ft 109kts
02-Sep-23 12:39 34.745685 -111.915585 45 7600ft 110kts
02-Sep-23 12:40 34.767378 -111.889027 42 6950ft 113kts
02-Sep-23 12:41 34.789364 -111.862093 44 6319ft 111kts
02-Sep-23 12:42 34.809963 -111.836465 44 5679ft 99kts
02-Sep-23 12:43 34.827728 -111.814393 41 5217ft 88kts
02-Sep-23 12:44 34.843638 -111.794650 44 4730ft 75kts
02-Sep-23 12:45 34.848968 -111.788807 319 4759ft 0kts
02-Sep-23 12:46 34.848968 -111.788807 319 4759ft 0kts
02-Sep-23 12:47 34.849077 -111.789817 315 4760ft 1kts

Navigation Log

Ident Type
Flight plan parsing failed, navigation log unavailable